createdAt,value
2023-03-22T00:01:24.651Z,99.90
2023-03-22T00:03:53.543Z,99.90
2023-03-22T00:06:21.650Z,99.90
2023-03-22T00:08:51.771Z,99.90
2023-03-22T00:11:22.707Z,99.90
2023-03-22T00:13:52.713Z,99.90
2023-03-22T00:16:21.302Z,99.90
2023-03-22T00:18:49.417Z,99.90
2023-03-22T00:21:18.487Z,99.90
2023-03-22T00:23:46.941Z,99.90
2023-03-22T00:26:15.799Z,99.90
2023-03-22T00:28:45.504Z,99.90
2023-03-22T00:31:13.610Z,99.90
2023-03-22T00:33:41.697Z,99.90
2023-03-22T00:36:12.072Z,99.90
2023-03-22T00:38:44.421Z,99.90
2023-03-22T00:41:14.382Z,99.90
2023-03-22T00:43:44.258Z,99.90
2023-03-22T00:46:13.275Z,99.90
2023-03-22T00:48:41.613Z,99.90
2023-03-22T00:51:10.919Z,99.90
2023-03-22T00:53:42.005Z,99.90
2023-03-22T00:56:13.758Z,99.90
2023-03-22T00:58:42.191Z,99.90
2023-03-22T01:01:14.082Z,99.90
2023-03-22T01:03:43.436Z,99.90
2023-03-22T01:06:12.445Z,99.90
2023-03-22T01:08:40.412Z,99.90
2023-03-22T01:11:09.630Z,99.90
2023-03-22T01:13:38.452Z,99.90
2023-03-22T01:16:07.314Z,99.90
2023-03-22T01:18:37.118Z,99.90
2023-03-22T01:21:05.886Z,99.90
2023-03-22T01:23:34.197Z,99.90
2023-03-22T01:26:02.442Z,99.90
2023-03-22T01:28:31.154Z,99.90
2023-03-22T01:31:03.074Z,99.90
2023-03-22T01:33:32.222Z,99.90
2023-03-22T01:36:01.639Z,99.90
2023-03-22T01:38:29.614Z,99.90
2023-03-22T01:40:58.700Z,99.90
2023-03-22T01:43:26.693Z,99.90
2023-03-22T01:45:55.764Z,99.90
2023-03-22T01:48:28.605Z,99.90
2023-03-22T01:51:06.545Z,99.90
2023-03-22T01:53:40.138Z,99.90
2023-03-22T01:56:09.007Z,99.90
2023-03-22T01:58:39.004Z,99.90
2023-03-22T02:01:09.120Z,99.90
2023-03-22T02:03:45.231Z,99.90
2023-03-22T02:06:14.551Z,99.90
2023-03-22T02:08:42.661Z,99.90
2023-03-22T02:11:16.650Z,99.90
2023-03-22T02:14:14.347Z,99.90
2023-03-22T02:16:54.941Z,99.90
2023-03-22T02:19:57.079Z,99.90
2023-03-22T02:23:00.092Z,99.90
2023-03-22T02:26:02.689Z,99.90
2023-03-22T02:28:40.055Z,99.90
2023-03-22T02:31:25.496Z,99.90
2023-03-22T02:34:18.105Z,99.90
2023-03-22T02:37:15.016Z,99.90
2023-03-22T02:39:49.330Z,99.90
2023-03-22T02:42:37.996Z,99.90
2023-03-22T02:45:14.512Z,99.90
2023-03-22T02:47:50.250Z,99.90
2023-03-22T02:50:27.265Z,99.90
2023-03-22T02:53:01.246Z,99.90
2023-03-22T02:55:34.477Z,99.90
2023-03-22T02:58:06.645Z,99.90
2023-03-22T03:00:38.851Z,99.90
2023-03-22T03:03:12.259Z,99.90
2023-03-22T03:05:42.718Z,99.90
2023-03-22T03:08:14.207Z,99.90
2023-03-22T03:10:44.696Z,99.90
2023-03-22T03:13:14.568Z,99.90
2023-03-22T03:15:45.490Z,99.90
2023-03-22T03:18:26.653Z,99.90
2023-03-22T03:21:03.355Z,99.90
2023-03-22T03:23:41.770Z,99.90
2023-03-22T03:26:17.214Z,99.90
2023-03-22T03:28:50.704Z,99.90
2023-03-22T03:31:29.345Z,99.90
2023-03-22T03:34:05.889Z,99.90
2023-03-22T03:36:37.879Z,99.90
2023-03-22T03:39:11.114Z,99.90
2023-03-22T03:41:41.315Z,99.90
2023-03-22T03:44:10.165Z,99.90
2023-03-22T03:46:38.305Z,99.90
2023-03-22T03:49:08.263Z,99.90
2023-03-22T03:51:48.585Z,99.90
2023-03-22T03:54:16.873Z,99.90
2023-03-22T03:56:47.796Z,99.90
2023-03-22T03:59:16.911Z,99.90
2023-03-22T04:01:50.318Z,99.90
2023-03-22T04:04:26.326Z,99.90
2023-03-22T04:06:56.909Z,99.90
2023-03-22T04:09:26.957Z,99.90
2023-03-22T04:11:57.359Z,99.90
2023-03-22T04:14:26.330Z,99.90
2023-03-22T04:16:55.250Z,99.90
2023-03-22T04:19:23.766Z,99.90
2023-03-22T04:21:53.253Z,99.90
2023-03-22T04:24:21.740Z,99.90
2023-03-22T04:26:49.948Z,99.90
2023-03-22T04:29:19.253Z,99.90
2023-03-22T04:31:47.223Z,99.90
2023-03-22T04:34:15.183Z,99.90
2023-03-22T04:36:45.278Z,99.90
2023-03-22T04:39:13.762Z,99.90
2023-03-22T04:41:41.696Z,99.90
2023-03-22T04:44:09.664Z,99.90
2023-03-22T04:46:39.287Z,99.90
2023-03-22T04:49:07.733Z,99.90
2023-03-22T04:51:35.869Z,99.90
2023-03-22T04:54:03.857Z,99.90
2023-03-22T04:56:31.825Z,99.90
2023-03-22T04:58:59.822Z,99.90
2023-03-22T05:01:27.826Z,99.90
2023-03-22T05:03:57.227Z,99.90
2023-03-22T05:06:25.331Z,99.90
2023-03-22T05:08:53.336Z,99.90
2023-03-22T05:11:21.993Z,99.90
2023-03-22T05:13:49.936Z,99.90
2023-03-22T05:16:17.999Z,99.90
2023-03-22T05:18:46.009Z,99.90
2023-03-22T05:21:16.553Z,99.90
2023-03-22T05:23:46.220Z,99.90
2023-03-22T05:26:15.888Z,99.90
2023-03-22T05:28:44.848Z,99.90
2023-03-22T05:31:14.636Z,99.90
2023-03-22T05:33:42.748Z,99.90
2023-03-22T05:36:12.281Z,99.90
2023-03-22T05:38:41.608Z,99.90
2023-03-22T05:41:10.703Z,99.90
2023-03-22T05:43:38.815Z,99.90
2023-03-22T05:46:07.814Z,99.90
2023-03-22T05:48:36.064Z,99.90
2023-03-22T05:51:06.608Z,99.90
2023-03-22T05:53:34.625Z,99.90
2023-03-22T05:56:04.047Z,99.90
2023-03-22T05:58:33.904Z,99.90
2023-03-22T06:01:07.067Z,99.90
2023-03-22T06:03:35.481Z,99.90
2023-03-22T06:06:06.731Z,99.90
2023-03-22T06:08:35.254Z,99.90
2023-03-22T06:11:05.036Z,99.90
2023-03-22T06:13:33.039Z,99.90
2023-03-22T06:16:02.082Z,99.90
2023-03-22T06:18:30.941Z,99.90
2023-03-22T06:20:59.093Z,99.90
2023-03-22T06:23:27.132Z,99.90
2023-03-22T06:25:55.272Z,99.90
2023-03-22T06:28:29.797Z,99.90
2023-03-22T06:30:58.211Z,99.90
2023-03-22T06:33:26.261Z,99.90
2023-03-22T06:36:01.900Z,99.90
2023-03-22T06:38:30.239Z,99.90
2023-03-22T06:40:58.442Z,99.90
2023-03-22T06:43:27.813Z,99.90
2023-03-22T06:45:57.334Z,99.90
2023-03-22T06:48:25.608Z,99.90
2023-03-22T06:50:53.810Z,99.90
2023-03-22T06:53:21.749Z,99.90
2023-03-22T06:55:49.754Z,99.90
2023-03-22T06:58:18.078Z,99.90
2023-03-22T07:00:47.444Z,99.90
2023-03-22T07:03:15.704Z,99.90
2023-03-22T07:05:43.698Z,99.90
2023-03-22T07:08:12.118Z,99.90
2023-03-22T07:10:40.298Z,99.90
2023-03-22T07:13:08.516Z,99.90
2023-03-22T07:15:36.565Z,99.90
2023-03-22T07:18:07.970Z,99.90
2023-03-22T07:20:38.587Z,99.90
2023-03-22T07:23:06.786Z,99.90
2023-03-22T07:25:34.799Z,99.90
2023-03-22T07:28:02.885Z,99.90
2023-03-22T07:30:30.893Z,99.90
2023-03-22T07:32:58.936Z,99.90
2023-03-22T07:35:28.498Z,99.90
2023-03-22T07:37:56.787Z,99.90
2023-03-22T07:40:25.505Z,99.90
2023-03-22T07:42:55.759Z,99.90
2023-03-22T07:45:24.775Z,99.90
2023-03-22T07:47:53.069Z,99.90
2023-03-22T07:50:21.685Z,99.90
2023-03-22T07:52:51.143Z,99.90
2023-03-22T07:55:19.212Z,99.90
2023-03-22T07:57:47.179Z,99.90
2023-03-22T08:00:17.273Z,99.90
2023-03-22T08:02:46.276Z,99.90
2023-03-22T08:05:14.328Z,99.50
2023-03-22T08:07:42.454Z,99.80
2023-03-22T08:10:13.853Z,99.60
2023-03-22T08:12:41.997Z,98.10
2023-03-22T08:15:11.283Z,98.00
2023-03-22T08:17:40.450Z,98.40
2023-03-22T08:20:19.023Z,98.80
2023-03-22T08:22:47.185Z,98.70
2023-03-22T08:25:16.793Z,98.50
2023-03-22T08:27:44.925Z,98.10
2023-03-22T08:30:14.171Z,97.70
2023-03-22T08:32:42.251Z,97.60
2023-03-22T08:35:11.758Z,98.40
2023-03-22T08:37:41.530Z,98.40
2023-03-22T08:40:12.715Z,97.20
2023-03-22T08:42:42.489Z,98.00
2023-03-22T08:45:11.345Z,96.80
2023-03-22T08:47:39.334Z,96.90
2023-03-22T08:50:08.530Z,97.60
2023-03-22T08:52:36.939Z,96.70
2023-03-22T08:55:05.488Z,94.90
2023-03-22T08:57:33.935Z,93.90
2023-03-22T09:00:06.552Z,92.80
2023-03-22T09:02:34.898Z,92.40
2023-03-22T09:05:03.316Z,92.00
2023-03-22T09:07:31.790Z,91.70
2023-03-22T09:10:00.069Z,92.10
2023-03-22T09:12:29.972Z,92.00
2023-03-22T09:14:58.281Z,90.80
2023-03-22T09:17:28.184Z,89.70
2023-03-22T09:20:11.126Z,87.10
2023-03-22T09:22:40.464Z,86.50
2023-03-22T09:25:12.162Z,86.40
2023-03-22T09:27:40.905Z,84.10
2023-03-22T09:30:10.268Z,83.20
2023-03-22T09:32:42.561Z,81.40
2023-03-22T09:35:11.068Z,82.30
2023-03-22T09:37:39.321Z,81.50
2023-03-22T09:40:09.382Z,80.70
2023-03-22T09:42:40.562Z,80.60
2023-03-22T09:45:15.960Z,79.10
2023-03-22T09:47:48.603Z,77.90
2023-03-22T09:50:20.785Z,77.40
2023-03-22T09:52:49.430Z,76.40
2023-03-22T09:55:26.232Z,77.10
2023-03-22T09:58:03.014Z,76.00
2023-03-22T10:00:39.679Z,70.40
2023-03-22T10:03:21.125Z,69.20
2023-03-22T10:05:53.982Z,72.40
2023-03-22T10:08:34.307Z,71.10
2023-03-22T10:11:02.650Z,71.00
2023-03-22T10:13:35.370Z,68.60
2023-03-22T10:16:05.103Z,67.00
2023-03-22T10:18:37.957Z,66.70
2023-03-22T10:21:08.258Z,67.20
2023-03-22T10:23:43.890Z,69.20
2023-03-22T10:26:20.373Z,70.70
2023-03-22T10:28:54.751Z,71.60
2023-03-22T10:31:23.000Z,71.90
2023-03-22T10:33:58.963Z,69.90
2023-03-22T10:36:34.800Z,69.00
2023-03-22T10:39:07.031Z,69.60
2023-03-22T10:41:35.714Z,70.80
2023-03-22T10:44:05.000Z,70.80
2023-03-22T10:46:38.198Z,71.30
2023-03-22T10:49:08.725Z,71.80
2023-03-22T10:51:41.665Z,71.30
2023-03-22T10:54:15.517Z,72.20
2023-03-22T10:56:45.066Z,70.90
2023-03-22T10:59:45.669Z,69.60
2023-03-22T11:02:20.086Z,70.20
2023-03-22T11:04:51.644Z,71.60
2023-03-22T11:07:31.506Z,72.10
2023-03-22T11:10:01.124Z,71.30
2023-03-22T11:12:29.320Z,71.70
2023-03-22T11:14:57.663Z,71.90
2023-03-22T11:17:26.953Z,71.10
2023-03-22T11:19:59.828Z,71.20
2023-03-22T11:22:34.412Z,71.40
2023-03-22T11:25:04.004Z,71.70
2023-03-22T11:27:36.405Z,71.70
2023-03-22T11:30:21.232Z,72.10
2023-03-22T11:32:49.962Z,71.60
2023-03-22T11:35:23.665Z,72.00
2023-03-22T11:37:53.193Z,71.80
2023-03-22T11:40:23.694Z,71.70
2023-03-22T11:42:56.141Z,71.70
2023-03-22T11:45:28.704Z,72.50
2023-03-22T11:48:02.647Z,73.00
2023-03-22T11:50:35.861Z,73.00
2023-03-22T11:53:05.479Z,73.50
2023-03-22T11:55:37.210Z,73.50
2023-03-22T11:58:06.477Z,73.90
2023-03-22T12:00:37.889Z,73.70
2023-03-22T12:03:09.756Z,74.10
2023-03-22T12:05:42.768Z,73.60
2023-03-22T12:08:17.315Z,73.20
2023-03-22T12:10:51.114Z,73.60
2023-03-22T12:13:22.521Z,73.20
2023-03-22T12:15:55.821Z,73.00
2023-03-22T12:18:28.799Z,73.00
2023-03-22T12:20:59.721Z,72.60
2023-03-22T12:23:29.848Z,72.70
2023-03-22T12:26:01.809Z,72.70
2023-03-22T12:28:33.952Z,73.30
2023-03-22T12:31:03.877Z,73.00
2023-03-22T12:33:44.972Z,72.60
2023-03-22T12:36:18.562Z,73.40
2023-03-22T12:38:51.532Z,72.90
2023-03-22T12:41:27.356Z,72.30
2023-03-22T12:43:57.646Z,71.80
2023-03-22T12:46:28.788Z,71.50
2023-03-22T12:49:03.507Z,71.70
2023-03-22T12:51:33.124Z,71.70
2023-03-22T12:54:02.142Z,72.30
2023-03-22T12:56:39.650Z,72.20
2023-03-22T12:59:15.401Z,72.10
2023-03-22T13:01:48.354Z,72.20
2023-03-22T13:04:32.621Z,72.20
2023-03-22T13:07:12.470Z,72.20
2023-03-22T13:09:43.399Z,72.50
2023-03-22T13:12:30.921Z,71.60
2023-03-22T13:15:05.057Z,71.30
2023-03-22T13:17:42.965Z,71.00
2023-03-22T13:20:28.837Z,70.60
2023-03-22T13:23:10.585Z,70.00
2023-03-22T13:25:40.264Z,69.20
2023-03-22T13:28:26.454Z,69.20
2023-03-22T13:30:56.642Z,68.50
2023-03-22T13:33:28.580Z,68.70
2023-03-22T13:35:59.546Z,68.80
2023-03-22T13:38:30.433Z,68.50
2023-03-22T13:41:02.699Z,67.90
2023-03-22T13:43:33.965Z,68.20
2023-03-22T13:46:13.797Z,67.60
2023-03-22T13:48:52.081Z,67.10
2023-03-22T13:51:29.224Z,66.90
2023-03-22T13:54:04.674Z,67.30
2023-03-22T13:56:47.844Z,67.40
2023-03-22T13:59:21.382Z,67.50
2023-03-22T14:01:53.357Z,67.10
2023-03-22T14:04:26.743Z,67.10
2023-03-22T14:06:59.892Z,67.00
2023-03-22T14:09:33.091Z,63.40
2023-03-22T14:12:08.210Z,62.70
2023-03-22T14:14:43.096Z,62.60
2023-03-22T14:17:21.473Z,62.20
2023-03-22T14:19:52.849Z,62.70
